createdAt,value
2023-04-09T10:31:12.205Z,11.09
2023-04-09T10:33:39.623Z,11.67
2023-04-09T10:36:12.388Z,11.94
2023-04-09T10:38:42.318Z,12.55
2023-04-09T10:41:28.847Z,12.90
2023-04-09T10:43:56.931Z,13.43
2023-04-09T10:46:36.203Z,13.52
2023-04-09T10:49:19.236Z,14.04
2023-04-09T10:52:07.984Z,14.17
2023-04-09T10:54:46.683Z,14.47
2023-04-09T10:57:15.754Z,14.46
2023-04-09T10:59:53.770Z,14.40
2023-04-09T11:02:39.052Z,15.08
2023-04-09T11:05:20.526Z,15.21
2023-04-09T11:08:11.036Z,15.05
2023-04-09T11:10:44.916Z,15.24
2023-04-09T11:13:13.744Z,14.90
2023-04-09T11:15:41.216Z,15.35
2023-04-09T11:18:10.022Z,15.43
2023-04-09T11:20:38.718Z,15.61
2023-04-09T11:23:05.951Z,15.29
2023-04-09T11:25:34.325Z,15.66
2023-04-09T11:28:04.257Z,15.79
2023-04-09T11:30:31.903Z,15.50
2023-04-09T11:32:59.037Z,15.97
2023-04-09T11:35:26.828Z,16.01
2023-04-09T11:37:54.322Z,15.79
2023-04-09T11:40:24.705Z,15.81
2023-04-09T11:42:54.076Z,15.98
2023-04-09T11:45:27.121Z,15.92
2023-04-09T11:47:54.762Z,15.67
2023-04-09T11:50:23.701Z,16.13
2023-04-09T11:52:51.335Z,15.72
2023-04-09T11:55:27.160Z,16.26
2023-04-09T11:58:01.233Z,16.08
2023-04-09T12:00:29.355Z,16.12
2023-04-09T12:03:05.028Z,16.20
2023-04-09T12:05:34.801Z,16.10
2023-04-09T12:08:05.144Z,16.24
2023-04-09T12:10:35.589Z,16.41
2023-04-09T12:13:10.603Z,16.45
2023-04-09T12:15:41.353Z,16.49
2023-04-09T12:18:13.697Z,16.75
2023-04-09T12:20:45.595Z,16.41
2023-04-09T12:23:13.410Z,16.38
2023-04-09T12:25:43.359Z,16.47
2023-04-09T12:28:15.407Z,16.59
2023-04-09T12:30:43.877Z,16.46
2023-04-09T12:33:11.589Z,16.42
2023-04-09T12:35:39.045Z,16.76
2023-04-09T12:38:06.403Z,16.88
2023-04-09T12:40:33.619Z,16.90
2023-04-09T12:43:01.639Z,16.79
2023-04-09T12:45:29.711Z,16.94
2023-04-09T12:47:58.265Z,16.78
2023-04-09T12:50:25.729Z,17.04
2023-04-09T12:52:53.948Z,17.06
2023-04-09T12:55:22.524Z,16.62
2023-04-09T12:57:53.130Z,17.09
2023-04-09T13:00:20.370Z,15.68
2023-04-09T13:02:47.611Z,16.79
2023-04-09T13:05:14.889Z,16.97
2023-04-09T13:07:43.608Z,17.24
2023-04-09T13:10:11.332Z,15.65
2023-04-09T13:12:38.613Z,17.08
2023-04-09T13:15:06.831Z,16.99
2023-04-09T13:17:33.961Z,17.22
2023-04-09T13:20:01.780Z,17.36
2023-04-09T13:22:28.993Z,17.04
2023-04-09T13:24:56.210Z,17.43
2023-04-09T13:27:23.994Z,17.21
2023-04-09T13:29:53.589Z,17.53
2023-04-09T13:32:23.669Z,17.25
2023-04-09T13:34:53.709Z,17.15
2023-04-09T13:37:23.635Z,17.67
2023-04-09T13:39:54.067Z,17.60
2023-04-09T13:42:22.059Z,17.59
2023-04-09T13:44:49.235Z,16.79
2023-04-09T13:47:17.629Z,17.47
2023-04-09T13:49:44.728Z,17.30
2023-04-09T13:52:12.102Z,17.49
2023-04-09T13:54:39.203Z,17.45
2023-04-09T13:57:06.670Z,17.10
2023-04-09T13:59:33.837Z,17.29
2023-04-09T14:02:01.061Z,17.37
2023-04-09T14:04:28.390Z,17.29
2023-04-09T14:06:55.710Z,17.48
2023-04-09T14:09:23.402Z,17.39
2023-04-09T14:11:52.240Z,17.42
2023-04-09T14:14:20.033Z,17.69
2023-04-09T14:16:48.743Z,17.56
2023-04-09T14:19:16.125Z,17.75
2023-04-09T14:21:43.706Z,17.49
2023-04-09T14:24:11.197Z,17.70
2023-04-09T14:26:38.283Z,17.27
2023-04-09T14:29:05.377Z,17.51
2023-04-09T14:31:32.736Z,17.42
2023-04-09T14:33:59.996Z,17.34
2023-04-09T14:36:30.113Z,17.41
2023-04-09T14:39:00.563Z,17.54
2023-04-09T14:41:27.898Z,16.88
2023-04-09T14:43:55.004Z,17.20
2023-04-09T14:46:22.896Z,17.48
2023-04-09T14:48:50.110Z,17.04
2023-04-09T14:51:17.346Z,17.14
2023-04-09T14:53:45.055Z,17.43
2023-04-09T14:56:12.282Z,17.35
2023-04-09T14:58:39.391Z,17.30
2023-04-09T15:01:06.800Z,17.57
2023-04-09T15:03:34.245Z,17.28
2023-04-09T15:06:01.708Z,17.27
2023-04-09T15:08:29.022Z,17.28
2023-04-09T15:10:56.167Z,17.08
2023-04-09T15:13:26.997Z,17.61
2023-04-09T15:15:54.282Z,17.25
2023-04-09T15:18:21.883Z,17.56
2023-04-09T15:20:49.279Z,16.81
2023-04-09T15:23:16.554Z,17.57
2023-04-09T15:25:43.670Z,17.01
2023-04-09T15:28:11.066Z,17.59
2023-04-09T15:30:38.170Z,17.39
2023-04-09T15:33:07.338Z,17.62
2023-04-09T15:35:35.483Z,17.53
2023-04-09T15:38:02.669Z,17.24
2023-04-09T15:40:30.955Z,17.57
2023-04-09T15:42:58.476Z,17.52
2023-04-09T15:45:26.774Z,17.51
2023-04-09T15:47:54.068Z,17.44
2023-04-09T15:50:21.676Z,17.33
2023-04-09T15:52:49.147Z,17.15
2023-04-09T15:55:16.253Z,16.97
2023-04-09T15:57:46.968Z,17.30
2023-04-09T16:00:15.565Z,17.01
2023-04-09T16:02:42.774Z,17.23
2023-04-09T16:05:10.241Z,17.15
2023-04-09T16:07:37.324Z,17.07
2023-04-09T16:10:04.974Z,17.04
2023-04-09T16:12:32.210Z,16.94
2023-04-09T16:14:59.631Z,17.05
2023-04-09T16:17:27.020Z,17.05
2023-04-09T16:19:54.224Z,17.05
2023-04-09T16:22:23.595Z,16.91
2023-04-09T16:24:50.985Z,16.91
2023-04-09T16:27:18.188Z,16.98
2023-04-09T16:29:46.406Z,16.86
2023-04-09T16:32:15.744Z,16.45
2023-04-09T16:34:42.839Z,16.72
2023-04-09T16:37:09.923Z,16.29
2023-04-09T16:39:37.189Z,16.44
2023-04-09T16:42:04.476Z,16.30
2023-04-09T16:44:32.044Z,16.12
2023-04-09T16:46:59.673Z,16.44
2023-04-09T16:49:27.121Z,16.64
2023-04-09T16:51:54.625Z,16.19
2023-04-09T16:54:21.983Z,16.60
2023-04-09T16:56:49.171Z,16.33
2023-04-09T16:59:18.508Z,16.44
2023-04-09T17:01:45.787Z,16.39
2023-04-09T17:04:13.129Z,16.21
2023-04-09T17:06:40.258Z,16.05
2023-04-09T17:09:07.674Z,15.98
2023-04-09T17:11:34.837Z,16.03
2023-04-09T17:14:01.943Z,15.96
2023-04-09T17:16:29.217Z,16.20
2023-04-09T17:18:56.887Z,15.97
2023-04-09T17:21:24.131Z,16.11
2023-04-09T17:23:51.497Z,16.06
2023-04-09T17:26:19.174Z,16.02
2023-04-09T17:28:46.941Z,15.36
2023-04-09T17:31:16.111Z,15.68
2023-04-09T17:33:48.187Z,15.79
2023-04-09T17:36:19.012Z,15.36
2023-04-09T17:38:47.470Z,14.19
2023-04-09T17:41:14.571Z,15.53
2023-04-09T17:43:41.942Z,15.30
2023-04-09T17:46:09.230Z,15.06
2023-04-09T17:48:39.629Z,15.17
2023-04-09T17:51:07.334Z,15.22
2023-04-09T17:53:34.616Z,15.19
2023-04-09T17:56:04.187Z,13.53
2023-04-09T17:58:31.386Z,14.36
2023-04-09T18:00:59.760Z,14.27
2023-04-09T18:03:27.513Z,14.84
2023-04-09T18:05:54.892Z,14.99
2023-04-09T18:08:22.495Z,14.71
2023-04-09T18:11:08.886Z,14.06
2023-04-09T18:13:38.983Z,14.68
2023-04-09T18:16:14.944Z,13.83
2023-04-09T18:18:42.085Z,14.50
2023-04-09T18:21:09.437Z,13.75
2023-04-09T18:23:36.634Z,14.58
2023-04-09T18:26:03.747Z,14.51
2023-04-09T18:28:31.167Z,14.45
2023-04-09T18:30:59.348Z,14.27
2023-04-09T18:33:27.245Z,13.81
2023-04-09T18:35:54.498Z,14.05
2023-04-09T18:38:25.765Z,14.07
2023-04-09T18:40:56.907Z,13.70
2023-04-09T18:43:25.163Z,14.07
2023-04-09T18:45:53.998Z,14.03
2023-04-09T18:48:23.627Z,13.66
2023-04-09T18:50:50.755Z,13.93
2023-04-09T18:53:18.273Z,13.51
2023-04-09T18:55:46.606Z,13.34
2023-04-09T18:58:15.204Z,13.66
2023-04-09T19:00:43.676Z,13.18
2023-04-09T19:03:11.335Z,13.34
2023-04-09T19:05:39.073Z,13.48
2023-04-09T19:08:07.064Z,13.43
2023-04-09T19:10:34.136Z,13.15
2023-04-09T19:13:01.231Z,12.87
2023-04-09T19:15:29.606Z,12.80
2023-04-09T19:17:57.618Z,13.31
2023-04-09T19:20:24.787Z,13.28
2023-04-09T19:22:57.600Z,13.10
2023-04-09T19:25:24.741Z,12.97
2023-04-09T19:27:53.738Z,13.10
2023-04-09T19:30:21.585Z,12.16
2023-04-09T19:32:48.876Z,12.58
2023-04-09T19:35:16.105Z,11.55
2023-04-09T19:37:43.761Z,11.91
2023-04-09T19:40:11.466Z,12.40
2023-04-09T19:42:38.590Z,12.37
2023-04-09T19:45:06.322Z,12.46
2023-04-09T19:47:34.970Z,12.22
2023-04-09T19:50:02.081Z,12.12
2023-04-09T19:52:29.212Z,12.27
2023-04-09T19:54:57.360Z,11.38
2023-04-09T19:57:26.787Z,12.12
2023-04-09T19:59:54.277Z,12.27
2023-04-09T20:02:21.901Z,12.15
2023-04-09T20:04:49.292Z,11.36
2023-04-09T20:07:16.375Z,12.18
2023-04-09T20:09:43.731Z,12.05
2023-04-09T20:12:11.083Z,11.81
2023-04-09T20:14:41.238Z,11.96
2023-04-09T20:17:10.054Z,11.95
2023-04-09T20:19:38.049Z,12.03
2023-04-09T20:22:05.186Z,11.66
2023-04-09T20:24:32.491Z,11.68
2023-04-09T20:26:59.901Z,11.77
2023-04-09T20:29:27.659Z,11.83
2023-04-09T20:31:54.893Z,11.61
2023-04-09T20:34:27.047Z,11.76
2023-04-09T20:36:55.001Z,11.38
2023-04-09T20:39:27.145Z,11.58
2023-04-09T20:41:56.872Z,11.28
2023-04-09T20:44:24.678Z,11.61
2023-04-09T20:46:52.247Z,11.46
2023-04-09T20:49:19.418Z,11.53
2023-04-09T20:51:46.785Z,11.31
2023-04-09T20:54:14.040Z,11.30
2023-04-09T20:56:41.715Z,11.04
2023-04-09T20:59:08.846Z,11.14
2023-04-09T21:01:36.373Z,11.03
2023-04-09T21:04:04.148Z,11.12
2023-04-09T21:06:31.405Z,10.68
2023-04-09T21:08:59.787Z,11.37
2023-04-09T21:11:30.231Z,11.18
2023-04-09T21:14:00.560Z,11.34
2023-04-09T21:16:30.124Z,10.33
2023-04-09T21:18:57.685Z,10.89
2023-04-09T21:21:27.640Z,10.69
2023-04-09T21:23:54.766Z,11.18
2023-04-09T21:26:24.093Z,10.86
2023-04-09T21:28:52.422Z,10.34
2023-04-09T21:31:24.228Z,10.71
2023-04-09T21:33:52.011Z,10.53
2023-04-09T21:36:19.186Z,10.32
2023-04-09T21:38:46.350Z,10.86
2023-04-09T21:41:13.535Z,10.24
2023-04-09T21:43:40.674Z,10.06
2023-04-09T21:46:07.863Z,10.49
2023-04-09T21:48:35.086Z,10.15
2023-04-09T21:51:02.238Z,10.33
2023-04-09T21:54:07.564Z,10.82
2023-04-09T21:56:35.629Z,10.39
2023-04-09T21:59:03.259Z,10.62
2023-04-09T22:01:31.670Z,10.27
2023-04-09T22:03:59.913Z,10.45
2023-04-09T22:06:30.212Z,9.97
2023-04-09T22:09:00.870Z,10.54
2023-04-09T22:11:28.874Z,10.44
2023-04-09T22:13:57.507Z,10.75
2023-04-09T22:16:26.201Z,10.52
2023-04-09T22:18:54.457Z,10.71
2023-04-09T22:21:23.054Z,9.97
2023-04-09T22:23:50.192Z,10.46
2023-04-09T22:26:17.292Z,9.90
2023-04-09T22:28:44.396Z,10.52
2023-04-09T22:31:11.653Z,10.62
2023-04-09T22:33:38.817Z,10.64
2023-04-09T22:36:06.718Z,10.31
2023-04-09T22:38:34.636Z,10.05
2023-04-09T22:41:01.949Z,10.57
2023-04-09T22:43:29.064Z,10.07
2023-04-09T22:45:57.453Z,10.39
2023-04-09T22:48:24.530Z,10.28
2023-04-09T22:50:51.869Z,10.47
2023-04-09T22:53:19.477Z,10.22
2023-04-09T22:55:54.735Z,10.16
2023-04-09T22:58:22.095Z,10.13
2023-04-09T23:00:50.884Z,10.32
2023-04-09T23:03:18.386Z,9.91
2023-04-09T23:05:46.493Z,10.28
2023-04-09T23:08:13.687Z,10.16
2023-04-09T23:10:41.164Z,10.14
2023-04-09T23:13:10.326Z,9.79
2023-04-09T23:15:37.387Z,9.99
2023-04-09T23:18:04.568Z,9.48
2023-04-09T23:20:31.720Z,10.19
2023-04-09T23:22:58.920Z,10.17
2023-04-09T23:25:26.064Z,9.81
2023-04-09T23:27:56.288Z,9.75
2023-04-09T23:30:24.598Z,9.75
2023-04-09T23:32:53.878Z,9.86
2023-04-09T23:35:23.494Z,9.67
2023-04-09T23:37:50.774Z,9.51
2023-04-09T23:40:20.938Z,9.79
2023-04-09T23:42:52.856Z,10.00
2023-04-09T23:45:23.701Z,9.77
2023-04-09T23:47:52.164Z,9.74
2023-04-09T23:50:19.299Z,9.95
2023-04-09T23:52:48.277Z,9.75
2023-04-09T23:55:15.769Z,9.93
2023-04-09T23:57:43.816Z,9.48
